sensor_id;sensor_type;location;lat;lon;timestamp;temperature;humidity
54260;DHT22;40172;53.022;7.012;2023-03-23T00:01:06;12.30;99.90
54260;DHT22;40172;53.022;7.012;2023-03-23T00:03:32;10.70;99.90
54260;DHT22;40172;53.022;7.012;2023-03-23T00:05:58;10.10;99.90
54260;DHT22;40172;53.022;7.012;2023-03-23T00:08:38;10.80;99.90
54260;DHT22;40172;53.022;7.012;2023-03-23T00:11:21;10.70;99.90
54260;DHT22;40172;53.022;7.012;2023-03-23T00:13:49;10.70;99.90
54260;DHT22;40172;53.022;7.012;2023-03-23T00:16:18;10.70;99.90
54260;DHT22;40172;53.022;7.012;2023-03-23T00:18:49;10.70;99.90
54260;DHT22;40172;53.022;7.012;2023-03-23T00:21:35;10.80;99.90
54260;DHT22;40172;53.022;7.012;2023-03-23T00:24:11;10.80;99.90
54260;DHT22;40172;53.022;7.012;2023-03-23T00:26:38;10.70;99.90
54260;DHT22;40172;53.022;7.012;2023-03-23T00:31:39;10.80;99.90
54260;DHT22;40172;53.022;7.012;2023-03-23T00:34:04;10.90;99.90
54260;DHT22;40172;53.022;7.012;2023-03-23T00:36:32;10.90;99.90
54260;DHT22;40172;53.022;7.012;2023-03-23T00:39:01;10.80;99.90
54260;DHT22;40172;53.022;7.012;2023-03-23T00:41:27;10.80;99.90
54260;DHT22;40172;53.022;7.012;2023-03-23T00:43:57;10.80;99.90
54260;DHT22;40172;53.022;7.012;2023-03-23T00:46:24;10.80;99.90
54260;DHT22;40172;53.022;7.012;2023-03-23T00:48:50;11.60;99.90
54260;DHT22;40172;53.022;7.012;2023-03-23T00:51:19;10.80;99.90
54260;DHT22;40172;53.022;7.012;2023-03-23T00:53:46;10.80;99.90
54260;DHT22;40172;53.022;7.012;2023-03-23T00:56:12;10.80;99.90
54260;DHT22;40172;53.022;7.012;2023-03-23T00:58:37;10.80;99.90
54260;DHT22;40172;53.022;7.012;2023-03-23T01:01:04;10.90;99.90
54260;DHT22;40172;53.022;7.012;2023-03-23T01:03:29;10.70;99.90
54260;DHT22;40172;53.022;7.012;2023-03-23T01:05:55;10.80;99.90
54260;DHT22;40172;53.022;7.012;2023-03-23T01:08:22;10.80;99.90
54260;DHT22;40172;53.022;7.012;2023-03-23T01:10:49;10.70;99.90
54260;DHT22;40172;53.022;7.012;2023-03-23T01:13:15;10.70;99.90
54260;DHT22;40172;53.022;7.012;2023-03-23T01:15:42;10.80;99.90
54260;DHT22;40172;53.022;7.012;2023-03-23T01:18:09;10.80;99.90
54260;DHT22;40172;53.022;7.012;2023-03-23T01:20:35;10.80;99.90
54260;DHT22;40172;53.022;7.012;2023-03-23T01:23:02;10.80;99.90
54260;DHT22;40172;53.022;7.012;2023-03-23T01:25:34;11.80;99.90
54260;DHT22;40172;53.022;7.012;2023-03-23T01:28:00;10.80;99.90
54260;DHT22;40172;53.022;7.012;2023-03-23T01:30:26;10.70;99.90
54260;DHT22;40172;53.022;7.012;2023-03-23T01:32:54;10.80;99.90
54260;DHT22;40172;53.022;7.012;2023-03-23T01:35:20;10.70;99.90
54260;DHT22;40172;53.022;7.012;2023-03-23T01:37:46;10.60;99.90
54260;DHT22;40172;53.022;7.012;2023-03-23T01:40:13;10.70;99.90
54260;DHT22;40172;53.022;7.012;2023-03-23T01:42:39;10.60;99.90
54260;DHT22;40172;53.022;7.012;2023-03-23T01:45:28;10.70;99.90
54260;DHT22;40172;53.022;7.012;2023-03-23T01:48:01;10.70;99.90
54260;DHT22;40172;53.022;7.012;2023-03-23T01:50:28;11.50;99.90
54260;DHT22;40172;53.022;7.012;2023-03-23T01:52:57;10.60;99.90
54260;DHT22;40172;53.022;7.012;2023-03-23T01:55:25;10.60;99.90
54260;DHT22;40172;53.022;7.012;2023-03-23T01:57:51;10.60;99.90
54260;DHT22;40172;53.022;7.012;2023-03-23T02:00:18;10.60;99.90
54260;DHT22;40172;53.022;7.012;2023-03-23T02:02:44;10.60;99.90
54260;DHT22;40172;53.022;7.012;2023-03-23T02:05:15;10.60;99.90
54260;DHT22;40172;53.022;7.012;2023-03-23T02:07:45;10.60;99.90
54260;DHT22;40172;53.022;7.012;2023-03-23T02:10:11;10.50;99.90
54260;DHT22;40172;53.022;7.012;2023-03-23T02:12:37;10.50;99.90
54260;DHT22;40172;53.022;7.012;2023-03-23T02:15:04;10.50;99.90
54260;DHT22;40172;53.022;7.012;2023-03-23T02:18:03;10.60;99.90
54260;DHT22;40172;53.022;7.012;2023-03-23T02:20:45;10.70;99.90
54260;DHT22;40172;53.022;7.012;2023-03-23T02:23:46;10.60;99.90
54260;DHT22;40172;53.022;7.012;2023-03-23T02:26:19;9.70;99.90
54260;DHT22;40172;53.022;7.012;2023-03-23T02:32:16;10.70;99.90
54260;DHT22;40172;53.022;7.012;2023-03-23T02:34:50;10.70;99.90
54260;DHT22;40172;53.022;7.012;2023-03-23T02:39:56;10.60;99.90
54260;DHT22;40172;53.022;7.012;2023-03-23T02:42:29;10.60;99.90
54260;DHT22;40172;53.022;7.012;2023-03-23T02:44:58;10.60;99.90
54260;DHT22;40172;53.022;7.012;2023-03-23T02:47:27;10.60;99.90
54260;DHT22;40172;53.022;7.012;2023-03-23T02:49:56;10.70;99.90
54260;DHT22;40172;53.022;7.012;2023-03-23T02:52:27;10.60;99.90
54260;DHT22;40172;53.022;7.012;2023-03-23T02:54:55;10.60;99.90
54260;DHT22;40172;53.022;7.012;2023-03-23T02:57:22;10.60;99.90
54260;DHT22;40172;53.022;7.012;2023-03-23T02:59:48;10.60;99.90
54260;DHT22;40172;53.022;7.012;2023-03-23T03:02:17;10.50;99.90
54260;DHT22;40172;53.022;7.012;2023-03-23T03:07:31;10.60;99.90
54260;DHT22;40172;53.022;7.012;2023-03-23T03:10:28;10.60;99.90
54260;DHT22;40172;53.022;7.012;2023-03-23T03:15:53;10.60;99.90
54260;DHT22;40172;53.022;7.012;2023-03-23T03:18:46;10.60;99.90
54260;DHT22;40172;53.022;7.012;2023-03-23T03:21:14;10.60;99.90
54260;DHT22;40172;53.022;7.012;2023-03-23T03:23:45;10.60;99.90
54260;DHT22;40172;53.022;7.012;2023-03-23T03:26:12;10.60;99.90
54260;DHT22;40172;53.022;7.012;2023-03-23T03:28:44;10.50;99.90
54260;DHT22;40172;53.022;7.012;2023-03-23T03:31:13;10.60;99.90
54260;DHT22;40172;53.022;7.012;2023-03-23T03:33:40;10.60;99.90
54260;DHT22;40172;53.022;7.012;2023-03-23T03:36:06;10.00;99.90
54260;DHT22;40172;53.022;7.012;2023-03-23T03:38:45;10.60;99.90
54260;DHT22;40172;53.022;7.012;2023-03-23T03:41:12;10.60;99.90
54260;DHT22;40172;53.022;7.012;2023-03-23T03:43:38;10.60;99.90
54260;DHT22;40172;53.022;7.012;2023-03-23T03:46:04;10.60;99.90
54260;DHT22;40172;53.022;7.012;2023-03-23T03:48:29;10.60;99.90
54260;DHT22;40172;53.022;7.012;2023-03-23T03:50:55;10.60;99.90
54260;DHT22;40172;53.022;7.012;2023-03-23T03:53:22;10.60;99.90
54260;DHT22;40172;53.022;7.012;2023-03-23T03:55:48;10.50;99.90
54260;DHT22;40172;53.022;7.012;2023-03-23T03:58:15;10.70;99.90
54260;DHT22;40172;53.022;7.012;2023-03-23T04:00:41;10.60;99.90
54260;DHT22;40172;53.022;7.012;2023-03-23T04:03:08;10.70;99.90
54260;DHT22;40172;53.022;7.012;2023-03-23T04:05:34;10.60;99.90
54260;DHT22;40172;53.022;7.012;2023-03-23T04:08:02;10.70;99.90
54260;DHT22;40172;53.022;7.012;2023-03-23T04:10:29;10.70;99.90
54260;DHT22;40172;53.022;7.012;2023-03-23T04:12:55;10.70;99.90
54260;DHT22;40172;53.022;7.012;2023-03-23T04:15:22;10.70;99.90
54260;DHT22;40172;53.022;7.012;2023-03-23T04:17:48;10.80;99.90
54260;DHT22;40172;53.022;7.012;2023-03-23T04:20:13;10.70;99.90
54260;DHT22;40172;53.022;7.012;2023-03-23T04:22:47;12.20;99.90
54260;DHT22;40172;53.022;7.012;2023-03-23T04:25:16;12.10;99.90
54260;DHT22;40172;53.022;7.012;2023-03-23T04:27:43;10.70;99.90
54260;DHT22;40172;53.022;7.012;2023-03-23T04:30:10;10.70;99.90
54260;DHT22;40172;53.022;7.012;2023-03-23T04:32:37;10.70;99.90
54260;DHT22;40172;53.022;7.012;2023-03-23T04:35:06;10.70;99.90
54260;DHT22;40172;53.022;7.012;2023-03-23T04:37:32;10.70;99.90
54260;DHT22;40172;53.022;7.012;2023-03-23T04:40:00;10.70;99.90
54260;DHT22;40172;53.022;7.012;2023-03-23T04:42:30;10.60;99.90
54260;DHT22;40172;53.022;7.012;2023-03-23T04:44:59;10.60;99.90
54260;DHT22;40172;53.022;7.012;2023-03-23T04:47:26;10.60;99.90
54260;DHT22;40172;53.022;7.012;2023-03-23T04:49:56;10.60;99.90
54260;DHT22;40172;53.022;7.012;2023-03-23T04:52:24;12.50;99.90
54260;DHT22;40172;53.022;7.012;2023-03-23T04:54:50;10.80;99.90
54260;DHT22;40172;53.022;7.012;2023-03-23T04:57:16;10.80;99.90
54260;DHT22;40172;53.022;7.012;2023-03-23T04:59:42;10.90;99.90
54260;DHT22;40172;53.022;7.012;2023-03-23T05:02:12;10.90;99.90
54260;DHT22;40172;53.022;7.012;2023-03-23T05:04:39;10.90;99.90
54260;DHT22;40172;53.022;7.012;2023-03-23T05:07:06;10.10;99.90
54260;DHT22;40172;53.022;7.012;2023-03-23T05:09:33;11.00;99.90
54260;DHT22;40172;53.022;7.012;2023-03-23T05:12:04;11.00;99.90
54260;DHT22;40172;53.022;7.012;2023-03-23T05:14:30;12.30;99.90
54260;DHT22;40172;53.022;7.012;2023-03-23T05:16:56;11.00;99.90
54260;DHT22;40172;53.022;7.012;2023-03-23T05:19:21;11.10;99.90
54260;DHT22;40172;53.022;7.012;2023-03-23T05:21:47;11.00;99.90
54260;DHT22;40172;53.022;7.012;2023-03-23T05:24:13;11.00;99.90
54260;DHT22;40172;53.022;7.012;2023-03-23T05:26:39;10.90;99.90
54260;DHT22;40172;53.022;7.012;2023-03-23T05:29:04;10.80;99.90
54260;DHT22;40172;53.022;7.012;2023-03-23T05:31:30;10.80;99.90
54260;DHT22;40172;53.022;7.012;2023-03-23T05:33:56;10.70;99.90
54260;DHT22;40172;53.022;7.012;2023-03-23T05:36:22;10.50;99.90
54260;DHT22;40172;53.022;7.012;2023-03-23T05:38:50;10.50;99.90
54260;DHT22;40172;53.022;7.012;2023-03-23T05:41:16;10.50;99.90
54260;DHT22;40172;53.022;7.012;2023-03-23T05:43:44;10.50;99.90
54260;DHT22;40172;53.022;7.012;2023-03-23T05:46:09;10.50;99.90
54260;DHT22;40172;53.022;7.012;2023-03-23T05:48:35;10.40;99.90
54260;DHT22;40172;53.022;7.012;2023-03-23T05:51:04;10.40;99.90
54260;DHT22;40172;53.022;7.012;2023-03-23T05:53:29;10.40;99.90
54260;DHT22;40172;53.022;7.012;2023-03-23T05:56:02;10.40;99.90
54260;DHT22;40172;53.022;7.012;2023-03-23T05:58:29;10.30;99.90
54260;DHT22;40172;53.022;7.012;2023-03-23T06:00:57;10.30;99.90
54260;DHT22;40172;53.022;7.012;2023-03-23T06:03:23;10.40;99.90
54260;DHT22;40172;53.022;7.012;2023-03-23T06:05:48;10.40;99.90
54260;DHT22;40172;53.022;7.012;2023-03-23T06:08:14;10.40;99.90
54260;DHT22;40172;53.022;7.012;2023-03-23T06:10:40;10.50;99.90
54260;DHT22;40172;53.022;7.012;2023-03-23T06:13:05;10.40;99.90
54260;DHT22;40172;53.022;7.012;2023-03-23T06:15:31;10.50;99.90
54260;DHT22;40172;53.022;7.012;2023-03-23T06:17:59;10.60;99.90
54260;DHT22;40172;53.022;7.012;2023-03-23T06:20:24;10.60;99.90
54260;DHT22;40172;53.022;7.012;2023-03-23T06:22:50;10.60;99.90
54260;DHT22;40172;53.022;7.012;2023-03-23T06:25:17;10.60;99.90
54260;DHT22;40172;53.022;7.012;2023-03-23T06:27:43;10.60;99.90
54260;DHT22;40172;53.022;7.012;2023-03-23T06:30:09;10.60;99.90
54260;DHT22;40172;53.022;7.012;2023-03-23T06:32:36;10.60;99.90
54260;DHT22;40172;53.022;7.012;2023-03-23T06:35:03;10.60;99.90
54260;DHT22;40172;53.022;7.012;2023-03-23T06:37:29;10.60;99.90
54260;DHT22;40172;53.022;7.012;2023-03-23T06:39:55;10.50;99.90
54260;DHT22;40172;53.022;7.012;2023-03-23T06:42:22;10.50;99.90
54260;DHT22;40172;53.022;7.012;2023-03-23T06:44:50;10.50;99.90
54260;DHT22;40172;53.022;7.012;2023-03-23T06:47:16;10.50;99.90
54260;DHT22;40172;53.022;7.012;2023-03-23T06:49:42;10.50;99.90
54260;DHT22;40172;53.022;7.012;2023-03-23T06:52:08;10.50;99.90
54260;DHT22;40172;53.022;7.012;2023-03-23T06:54:33;10.50;99.90
54260;DHT22;40172;53.022;7.012;2023-03-23T06:56:59;10.50;99.90
54260;DHT22;40172;53.022;7.012;2023-03-23T06:59:25;10.40;99.90
54260;DHT22;40172;53.022;7.012;2023-03-23T07:01:51;10.50;99.90
54260;DHT22;40172;53.022;7.012;2023-03-23T07:04:17;10.50;99.90
54260;DHT22;40172;53.022;7.012;2023-03-23T07:06:43;10.60;99.90
54260;DHT22;40172;53.022;7.012;2023-03-23T07:09:08;10.50;99.90
54260;DHT22;40172;53.022;7.012;2023-03-23T07:11:34;10.60;99.90
54260;DHT22;40172;53.022;7.012;2023-03-23T07:14:00;10.60;99.90
54260;DHT22;40172;53.022;7.012;2023-03-23T07:16:25;10.70;99.90
54260;DHT22;40172;53.022;7.012;2023-03-23T07:18:51;10.80;99.90
54260;DHT22;40172;53.022;7.012;2023-03-23T07:21:17;10.70;99.90
54260;DHT22;40172;53.022;7.012;2023-03-23T07:23:43;10.80;99.90
54260;DHT22;40172;53.022;7.012;2023-03-23T07:26:11;10.90;99.90
54260;DHT22;40172;53.022;7.012;2023-03-23T07:28:38;11.00;99.90
54260;DHT22;40172;53.022;7.012;2023-03-23T07:31:05;10.90;99.90
54260;DHT22;40172;53.022;7.012;2023-03-23T07:33:30;11.00;99.90
54260;DHT22;40172;53.022;7.012;2023-03-23T07:35:58;11.00;99.90
54260;DHT22;40172;53.022;7.012;2023-03-23T07:38:25;11.00;99.90
54260;DHT22;40172;53.022;7.012;2023-03-23T07:40:53;11.00;99.90
54260;DHT22;40172;53.022;7.012;2023-03-23T07:43:19;11.00;99.90
54260;DHT22;40172;53.022;7.012;2023-03-23T07:45:45;11.00;99.90
54260;DHT22;40172;53.022;7.012;2023-03-23T07:48:11;11.00;99.90
54260;DHT22;40172;53.022;7.012;2023-03-23T07:50:36;11.00;99.90
54260;DHT22;40172;53.022;7.012;2023-03-23T07:53:03;11.10;99.90
54260;DHT22;40172;53.022;7.012;2023-03-23T07:55:29;11.30;99.90
54260;DHT22;40172;53.022;7.012;2023-03-23T07:57:55;11.40;99.90
54260;DHT22;40172;53.022;7.012;2023-03-23T08:00:21;11.60;99.90
54260;DHT22;40172;53.022;7.012;2023-03-23T08:02:51;11.70;99.90
54260;DHT22;40172;53.022;7.012;2023-03-23T08:05:17;11.60;99.90
54260;DHT22;40172;53.022;7.012;2023-03-23T08:07:44;11.60;99.90
54260;DHT22;40172;53.022;7.012;2023-03-23T08:10:11;11.60;99.90
54260;DHT22;40172;53.022;7.012;2023-03-23T08:12:39;11.60;99.90
54260;DHT22;40172;53.022;7.012;2023-03-23T08:15:07;11.70;99.90
54260;DHT22;40172;53.022;7.012;2023-03-23T08:17:34;11.70;99.90
54260;DHT22;40172;53.022;7.012;2023-03-23T08:20:10;11.70;99.90
54260;DHT22;40172;53.022;7.012;2023-03-23T08:22:39;11.70;99.90
54260;DHT22;40172;53.022;7.012;2023-03-23T08:25:07;11.70;99.90
54260;DHT22;40172;53.022;7.012;2023-03-23T08:27:33;11.70;99.90
54260;DHT22;40172;53.022;7.012;2023-03-23T08:30:02;11.80;99.90
54260;DHT22;40172;53.022;7.012;2023-03-23T08:32:28;11.80;99.90
54260;DHT22;40172;53.022;7.012;2023-03-23T08:34:54;11.80;99.90
54260;DHT22;40172;53.022;7.012;2023-03-23T08:37:20;11.80;99.90
54260;DHT22;40172;53.022;7.012;2023-03-23T08:39:46;11.10;99.90
54260;DHT22;40172;53.022;7.012;2023-03-23T08:42:12;11.90;99.90
54260;DHT22;40172;53.022;7.012;2023-03-23T08:44:37;11.90;99.90
54260;DHT22;40172;53.022;7.012;2023-03-23T08:47:03;11.90;99.90
54260;DHT22;40172;53.022;7.012;2023-03-23T08:49:31;11.80;99.90
54260;DHT22;40172;53.022;7.012;2023-03-23T08:51:58;11.90;99.90
54260;DHT22;40172;53.022;7.012;2023-03-23T08:54:25;13.10;99.90
54260;DHT22;40172;53.022;7.012;2023-03-23T08:56:51;12.00;99.90
54260;DHT22;40172;53.022;7.012;2023-03-23T08:59:17;11.90;99.90
54260;DHT22;40172;53.022;7.012;2023-03-23T09:01:42;11.80;99.90
54260;DHT22;40172;53.022;7.012;2023-03-23T09:04:08;11.80;99.90
54260;DHT22;40172;53.022;7.012;2023-03-23T09:06:37;11.80;99.90
54260;DHT22;40172;53.022;7.012;2023-03-23T09:09:03;12.00;99.90
54260;DHT22;40172;53.022;7.012;2023-03-23T09:11:35;12.10;99.90
54260;DHT22;40172;53.022;7.012;2023-03-23T09:14:03;12.30;99.90
54260;DHT22;40172;53.022;7.012;2023-03-23T09:16:29;12.30;99.90
54260;DHT22;40172;53.022;7.012;2023-03-23T09:18:55;12.00;99.90
54260;DHT22;40172;53.022;7.012;2023-03-23T09:21:23;11.90;99.90
54260;DHT22;40172;53.022;7.012;2023-03-23T09:23:49;11.90;99.90
54260;DHT22;40172;53.022;7.012;2023-03-23T09:26:15;12.20;99.90
54260;DHT22;40172;53.022;7.012;2023-03-23T09:28:41;12.10;99.90
54260;DHT22;40172;53.022;7.012;2023-03-23T09:31:06;11.90;99.90
54260;DHT22;40172;53.022;7.012;2023-03-23T09:33:32;11.80;99.90
54260;DHT22;40172;53.022;7.012;2023-03-23T09:36:01;12.00;99.90
54260;DHT22;40172;53.022;7.012;2023-03-23T09:38:28;12.10;99.90
54260;DHT22;40172;53.022;7.012;2023-03-23T09:46:25;12.00;99.90
54260;DHT22;40172;53.022;7.012;2023-03-23T09:48:55;12.00;99.90
54260;DHT22;40172;53.022;7.012;2023-03-23T09:54:28;12.00;99.90
54260;DHT22;40172;53.022;7.012;2023-03-23T09:56:55;12.00;99.90
54260;DHT22;40172;53.022;7.012;2023-03-23T09:59:30;11.90;99.90
54260;DHT22;40172;53.022;7.012;2023-03-23T10:02:15;12.10;99.90
54260;DHT22;40172;53.022;7.012;2023-03-23T10:04:48;11.80;99.90
54260;DHT22;40172;53.022;7.012;2023-03-23T10:07:18;12.10;99.90
54260;DHT22;40172;53.022;7.012;2023-03-23T10:09:47;12.00;99.90
54260;DHT22;40172;53.022;7.012;2023-03-23T10:12:25;12.40;99.90
54260;DHT22;40172;53.022;7.012;2023-03-23T10:14:55;12.60;99.90
54260;DHT22;40172;53.022;7.012;2023-03-23T10:17:30;12.60;99.90
54260;DHT22;40172;53.022;7.012;2023-03-23T10:25:58;12.90;99.90
54260;DHT22;40172;53.022;7.012;2023-03-23T10:28:48;13.10;99.90
54260;DHT22;40172;53.022;7.012;2023-03-23T10:31:26;13.30;99.90
54260;DHT22;40172;53.022;7.012;2023-03-23T10:33:57;13.50;99.90
54260;DHT22;40172;53.022;7.012;2023-03-23T10:36:58;13.60;99.90
54260;DHT22;40172;53.022;7.012;2023-03-23T10:39:30;13.80;99.90
54260;DHT22;40172;53.022;7.012;2023-03-23T10:41:57;13.80;99.90
54260;DHT22;40172;53.022;7.012;2023-03-23T10:44:28;13.70;99.90
54260;DHT22;40172;53.022;7.012;2023-03-23T10:46:59;13.40;99.90
54260;DHT22;40172;53.022;7.012;2023-03-23T10:49:38;13.10;99.90
54260;DHT22;40172;53.022;7.012;2023-03-23T10:52:23;12.40;99.90
54260;DHT22;40172;53.022;7.012;2023-03-23T10:57:30;12.70;99.90
54260;DHT22;40172;53.022;7.012;2023-03-23T11:02:38;12.90;99.90
54260;DHT22;40172;53.022;7.012;2023-03-23T11:05:19;13.00;99.90
54260;DHT22;40172;53.022;7.012;2023-03-23T11:07:56;13.10;99.90
54260;DHT22;40172;53.022;7.012;2023-03-23T11:10:25;13.20;99.90
54260;DHT22;40172;53.022;7.012;2023-03-23T11:12:51;13.30;99.90
54260;DHT22;40172;53.022;7.012;2023-03-23T11:15:37;13.60;99.90
54260;DHT22;40172;53.022;7.012;2023-03-23T11:18:38;13.80;99.90
54260;DHT22;40172;53.022;7.012;2023-03-23T11:20:58;13.90;99.90
54260;DHT22;40172;53.022;7.012;2023-03-23T11:23:24;14.10;99.90
54260;DHT22;40172;53.022;7.012;2023-03-23T11:25:58;14.20;99.90
54260;DHT22;40172;53.022;7.012;2023-03-23T11:28:37;14.40;99.90
54260;DHT22;40172;53.022;7.012;2023-03-23T11:31:05;13.70;99.90
54260;DHT22;40172;53.022;7.012;2023-03-23T11:33:54;14.30;99.90
54260;DHT22;40172;53.022;7.012;2023-03-23T11:36:30;14.30;99.90
54260;DHT22;40172;53.022;7.012;2023-03-23T11:38:56;14.30;99.90
54260;DHT22;40172;53.022;7.012;2023-03-23T11:41:23;14.10;99.90
54260;DHT22;40172;53.022;7.012;2023-03-23T11:43:51;14.00;99.90
54260;DHT22;40172;53.022;7.012;2023-03-23T11:46:26;14.00;99.90
54260;DHT22;40172;53.022;7.012;2023-03-23T11:49:07;14.30;99.90
54260;DHT22;40172;53.022;7.012;2023-03-23T11:51:54;14.30;99.90
54260;DHT22;40172;53.022;7.012;2023-03-23T11:54:33;14.40;99.90
54260;DHT22;40172;53.022;7.012;2023-03-23T11:56:59;14.50;99.90
54260;DHT22;40172;53.022;7.012;2023-03-23T11:59:31;14.10;99.90
54260;DHT22;40172;53.022;7.012;2023-03-23T12:04:40;14.50;99.90
54260;DHT22;40172;53.022;7.012;2023-03-23T12:07:36;14.40;99.90
54260;DHT22;40172;53.022;7.012;2023-03-23T12:13:11;14.70;99.90
54260;DHT22;40172;53.022;7.012;2023-03-23T12:18:49;14.80;99.90
54260;DHT22;40172;53.022;7.012;2023-03-23T12:35:20;15.50;99.90
54260;DHT22;40172;53.022;7.012;2023-03-23T12:40:33;15.40;99.90
54260;DHT22;40172;53.022;7.012;2023-03-23T12:43:06;15.30;99.90
54260;DHT22;40172;53.022;7.012;2023-03-23T12:48:22;15.60;99.90
54260;DHT22;40172;53.022;7.012;2023-03-23T12:51:13;15.70;99.90
54260;DHT22;40172;53.022;7.012;2023-03-23T12:53:58;15.70;99.90
54260;DHT22;40172;53.022;7.012;2023-03-23T12:56:32;15.90;99.90
54260;DHT22;40172;53.022;7.012;2023-03-23T13:02:01;15.50;99.90
54260;DHT22;40172;53.022;7.012;2023-03-23T13:04:33;15.20;99.90
54260;DHT22;40172;53.022;7.012;2023-03-23T13:07:06;15.10;99.90
54260;DHT22;40172;53.022;7.012;2023-03-23T13:12:19;15.20;99.90
54260;DHT22;40172;53.022;7.012;2023-03-23T13:14:58;15.20;99.90
54260;DHT22;40172;53.022;7.012;2023-03-23T13:23:03;14.70;99.90
54260;DHT22;40172;53.022;7.012;2023-03-23T13:28:00;14.50;99.90
54260;DHT22;40172;53.022;7.012;2023-03-23T13:30:27;14.40;99.90
54260;DHT22;40172;53.022;7.012;2023-03-23T13:33:02;16.20;99.90
54260;DHT22;40172;53.022;7.012;2023-03-23T13:35:37;15.10;99.90
54260;DHT22;40172;53.022;7.012;2023-03-23T13:38:23;15.10;99.90
54260;DHT22;40172;53.022;7.012;2023-03-23T13:40:51;15.00;99.90
54260;DHT22;40172;53.022;7.012;2023-03-23T13:43:34;15.00;99.90
54260;DHT22;40172;53.022;7.012;2023-03-23T13:48:49;15.40;99.90
54260;DHT22;40172;53.022;7.012;2023-03-23T13:54:38;15.60;99.90
54260;DHT22;40172;53.022;7.012;2023-03-23T13:57:33;15.70;99.90
54260;DHT22;40172;53.022;7.012;2023-03-23T14:02:51;15.60;99.90
54260;DHT22;40172;53.022;7.012;2023-03-23T14:11:12;15.50;99.90
54260;DHT22;40172;53.022;7.012;2023-03-23T14:13:58;15.50;99.90
54260;DHT22;40172;53.022;7.012;2023-03-23T14:16:50;15.30;99.90
54260;DHT22;40172;53.022;7.012;2023-03-23T14:19:27;15.10;99.90
54260;DHT22;40172;53.022;7.012;2023-03-23T14:21:58;16.00;99.90
54260;DHT22;40172;53.022;7.012;2023-03-23T14:24:33;15.00;99.90
54260;DHT22;40172;53.022;7.012;2023-03-23T14:27:14;15.00;99.90
54260;DHT22;40172;53.022;7.012;2023-03-23T14:29:41;15.00;99.90
54260;DHT22;40172;53.022;7.012;2023-03-23T14:32:10;15.10;99.90
54260;DHT22;40172;53.022;7.012;2023-03-23T14:34:37;15.10;99.90
54260;DHT22;40172;53.022;7.012;2023-03-23T14:37:03;14.90;99.90
54260;DHT22;40172;53.022;7.012;2023-03-23T14:39:31;14.70;99.90
54260;DHT22;40172;53.022;7.012;2023-03-23T14:42:04;14.60;99.90
54260;DHT22;40172;53.022;7.012;2023-03-23T14:44:32;14.40;99.90
54260;DHT22;40172;53.022;7.012;2023-03-23T14:47:03;14.30;99.90
54260;DHT22;40172;53.022;7.012;2023-03-23T14:49:35;14.20;99.90
54260;DHT22;40172;53.022;7.012;2023-03-23T14:52:10;14.30;99.90
54260;DHT22;40172;53.022;7.012;2023-03-23T14:54:36;14.50;99.90
54260;DHT22;40172;53.022;7.012;2023-03-23T14:57:18;14.60;99.90
54260;DHT22;40172;53.022;7.012;2023-03-23T14:59:46;14.50;99.90
54260;DHT22;40172;53.022;7.012;2023-03-23T15:02:17;14.50;99.90
54260;DHT22;40172;53.022;7.012;2023-03-23T15:04:45;14.30;99.90
54260;DHT22;40172;53.022;7.012;2023-03-23T15:07:13;14.20;99.90
54260;DHT22;40172;53.022;7.012;2023-03-23T15:09:42;14.20;99.90
54260;DHT22;40172;53.022;7.012;2023-03-23T15:12:22;14.10;99.90
54260;DHT22;40172;53.022;7.012;2023-03-23T15:14:51;14.30;99.90
54260;DHT22;40172;53.022;7.012;2023-03-23T15:17:26;14.30;99.90
54260;DHT22;40172;53.022;7.012;2023-03-23T15:19:53;14.30;99.90
54260;DHT22;40172;53.022;7.012;2023-03-23T15:22:28;14.30;99.90
54260;DHT22;40172;53.022;7.012;2023-03-23T15:25:11;14.40;99.90
54260;DHT22;40172;53.022;7.012;2023-03-23T15:27:52;14.20;99.90
54260;DHT22;40172;53.022;7.012;2023-03-23T15:32:55;13.90;99.90
54260;DHT22;40172;53.022;7.012;2023-03-23T15:35:25;13.70;99.90
54260;DHT22;40172;53.022;7.012;2023-03-23T15:38:00;14.00;99.90
54260;DHT22;40172;53.022;7.012;2023-03-23T15:40:27;14.10;99.90
54260;DHT22;40172;53.022;7.012;2023-03-23T15:48:32;14.60;99.90
54260;DHT22;40172;53.022;7.012;2023-03-23T15:50:59;14.50;99.90
54260;DHT22;40172;53.022;7.012;2023-03-23T15:53:33;14.70;99.90
54260;DHT22;40172;53.022;7.012;2023-03-23T15:56:01;14.70;99.90
54260;DHT22;40172;53.022;7.012;2023-03-23T15:58:28;14.80;99.90
54260;DHT22;40172;53.022;7.012;2023-03-23T16:00:54;14.80;99.90
54260;DHT22;40172;53.022;7.012;2023-03-23T16:03:30;14.80;99.90
54260;DHT22;40172;53.022;7.012;2023-03-23T16:05:58;14.80;99.90
54260;DHT22;40172;53.022;7.012;2023-03-23T16:08:25;14.60;99.90
54260;DHT22;40172;53.022;7.012;2023-03-23T16:10:51;14.40;99.90
54260;DHT22;40172;53.022;7.012;2023-03-23T16:13:17;14.30;99.90
54260;DHT22;40172;53.022;7.012;2023-03-23T16:15:43;14.20;99.90
54260;DHT22;40172;53.022;7.012;2023-03-23T16:18:16;14.20;99.90
54260;DHT22;40172;53.022;7.012;2023-03-23T16:20:42;14.90;99.90
54260;DHT22;40172;53.022;7.012;2023-03-23T16:23:08;14.10;99.90
54260;DHT22;40172;53.022;7.012;2023-03-23T16:25:33;14.10;99.90
54260;DHT22;40172;53.022;7.012;2023-03-23T16:27:59;14.10;99.90
54260;DHT22;40172;53.022;7.012;2023-03-23T16:30:27;14.00;99.90
54260;DHT22;40172;53.022;7.012;2023-03-23T16:32:53;14.00;99.90
54260;DHT22;40172;53.022;7.012;2023-03-23T16:35:19;14.00;99.90
54260;DHT22;40172;53.022;7.012;2023-03-23T16:37:47;14.00;99.90
54260;DHT22;40172;53.022;7.012;2023-03-23T16:40:14;14.10;99.90
54260;DHT22;40172;53.022;7.012;2023-03-23T16:42:40;14.20;99.90
54260;DHT22;40172;53.022;7.012;2023-03-23T16:45:06;14.40;99.90
54260;DHT22;40172;53.022;7.012;2023-03-23T16:47:32;14.40;99.90
54260;DHT22;40172;53.022;7.012;2023-03-23T16:49:58;15.30;99.90
54260;DHT22;40172;53.022;7.012;2023-03-23T16:52:24;14.10;99.90
54260;DHT22;40172;53.022;7.012;2023-03-23T16:54:50;14.40;99.90
54260;DHT22;40172;53.022;7.012;2023-03-23T16:57:15;14.10;99.90
54260;DHT22;40172;53.022;7.012;2023-03-23T16:59:41;14.30;99.90
54260;DHT22;40172;53.022;7.012;2023-03-23T17:02:10;14.40;99.90
54260;DHT22;40172;53.022;7.012;2023-03-23T17:04:35;14.30;99.90
54260;DHT22;40172;53.022;7.012;2023-03-23T17:07:02;14.10;99.90
54260;DHT22;40172;53.022;7.012;2023-03-23T17:09:28;13.90;99.90
54260;DHT22;40172;53.022;7.012;2023-03-23T17:11:54;13.70;99.90
54260;DHT22;40172;53.022;7.012;2023-03-23T17:14:20;13.60;99.90
54260;DHT22;40172;53.022;7.012;2023-03-23T17:16:46;13.30;99.90
54260;DHT22;40172;53.022;7.012;2023-03-23T17:19:12;13.20;99.90
54260;DHT22;40172;53.022;7.012;2023-03-23T17:21:41;13.00;99.90
54260;DHT22;40172;53.022;7.012;2023-03-23T17:24:07;12.80;99.90